createdAt,value
2023-03-14T00:01:49.815Z,2.80
2023-03-14T00:05:16.895Z,2.90
2023-03-14T00:08:45.043Z,3.30
2023-03-14T00:12:12.639Z,2.80
2023-03-14T00:15:39.786Z,2.80
2023-03-14T00:19:06.905Z,2.70
2023-03-14T00:22:34.027Z,2.50
2023-03-14T00:26:04.979Z,3.00
2023-03-14T00:29:32.057Z,3.20
2023-03-14T00:32:59.168Z,2.60
2023-03-14T00:36:27.149Z,2.50
2023-03-14T00:39:55.066Z,2.60
2023-03-14T00:43:23.686Z,2.30
2023-03-14T00:46:50.916Z,2.40
2023-03-14T00:50:18.270Z,1.80
2023-03-14T00:53:47.165Z,1.90
2023-03-14T00:57:14.384Z,1.80
2023-03-14T01:00:42.010Z,1.60
2023-03-14T01:04:09.599Z,1.00
2023-03-14T01:07:36.826Z,1.40
2023-03-14T01:11:11.631Z,1.00
2023-03-14T01:14:38.643Z,1.10
2023-03-14T01:18:06.242Z,1.10
2023-03-14T01:21:36.149Z,0.90
2023-03-14T01:25:03.744Z,1.30
2023-03-14T01:28:30.812Z,0.90
2023-03-14T01:31:57.969Z,0.90
2023-03-14T01:35:25.364Z,0.70
2023-03-14T01:38:52.828Z,0.80
2023-03-14T01:42:20.427Z,1.00
2023-03-14T01:46:27.691Z,1.00
2023-03-14T01:50:01.514Z,0.80
2023-03-14T01:53:30.259Z,0.60
2023-03-14T01:57:02.122Z,1.10
2023-03-14T02:00:29.706Z,1.10
2023-03-14T02:04:01.775Z,1.00
2023-03-14T02:07:36.569Z,1.20
2023-03-14T02:11:12.515Z,1.10
2023-03-14T02:15:06.627Z,1.50
2023-03-14T02:18:52.970Z,1.80
2023-03-14T02:22:20.644Z,1.70
2023-03-14T02:26:00.707Z,2.10
2023-03-14T02:29:28.481Z,2.20
2023-03-14T02:32:59.506Z,2.40
2023-03-14T02:36:27.816Z,2.30
2023-03-14T02:39:55.626Z,2.90
2023-03-14T02:43:22.882Z,2.90
2023-03-14T02:46:55.138Z,3.10
2023-03-14T02:50:27.212Z,2.90
2023-03-14T02:53:55.205Z,3.10
2023-03-14T02:57:23.279Z,2.80
2023-03-14T03:00:51.323Z,3.30
2023-03-14T03:04:18.677Z,3.30
2023-03-14T03:07:47.000Z,3.50
2023-03-14T03:11:14.450Z,3.00
2023-03-14T03:14:41.932Z,3.70
2023-03-14T03:18:09.863Z,3.50
2023-03-14T03:21:37.094Z,3.80
2023-03-14T03:25:05.795Z,4.50
2023-03-14T03:28:32.963Z,4.00
2023-03-14T03:32:00.518Z,4.20
2023-03-14T03:35:28.309Z,4.80
2023-03-14T03:38:56.329Z,4.80
2023-03-14T03:42:25.275Z,5.00
2023-03-14T03:45:52.717Z,5.20
2023-03-14T03:49:20.807Z,4.70
2023-03-14T03:52:48.387Z,5.10
2023-03-14T03:56:15.567Z,5.10
2023-03-14T03:59:43.078Z,4.90
2023-03-14T04:03:10.231Z,5.20
2023-03-14T04:06:39.058Z,5.50
2023-03-14T04:10:07.322Z,4.60
2023-03-14T04:13:38.406Z,5.60
2023-03-14T04:17:05.626Z,4.70
2023-03-14T04:20:32.992Z,5.50
2023-03-14T04:24:00.308Z,5.30
2023-03-14T04:27:31.483Z,5.00
2023-03-14T04:31:00.026Z,5.30
2023-03-14T04:34:29.304Z,5.80
2023-03-14T04:37:57.692Z,5.50
2023-03-14T04:41:25.289Z,5.80
2023-03-14T04:44:52.811Z,5.10
2023-03-14T04:48:23.244Z,5.00
2023-03-14T04:51:51.885Z,6.00
2023-03-14T04:55:19.862Z,5.40
2023-03-14T04:58:47.598Z,5.70
2023-03-14T05:02:17.289Z,6.00
2023-03-14T05:06:03.218Z,5.90
2023-03-14T05:10:06.699Z,6.10
2023-03-14T05:13:52.185Z,5.30
2023-03-14T05:17:39.301Z,5.90
2023-03-14T05:21:26.805Z,5.10
2023-03-14T05:25:15.240Z,5.60
2023-03-14T05:29:01.150Z,5.30
2023-03-14T05:32:38.922Z,5.90
2023-03-14T05:36:41.961Z,5.40
2023-03-14T05:40:28.040Z,6.20
2023-03-14T05:44:18.151Z,5.60
2023-03-14T05:48:13.620Z,6.00
2023-03-14T05:51:51.418Z,6.10
2023-03-14T05:55:40.999Z,5.90
2023-03-14T05:59:22.986Z,5.70
2023-03-14T06:03:19.458Z,6.40
2023-03-14T06:06:48.185Z,6.20
2023-03-14T06:10:16.026Z,6.50
2023-03-14T06:13:43.593Z,7.00
2023-03-14T06:17:10.864Z,6.90
2023-03-14T06:20:44.787Z,5.80
2023-03-14T06:27:42.569Z,6.80
2023-03-14T06:31:10.841Z,6.20
2023-03-14T06:34:44.495Z,6.30
2023-03-14T06:38:12.183Z,6.20
2023-03-14T06:41:39.715Z,6.00
2023-03-14T06:45:10.415Z,4.70
2023-03-14T06:48:37.481Z,5.30
2023-03-14T06:52:05.022Z,4.90
2023-03-14T06:55:32.988Z,4.70
2023-03-14T06:59:00.135Z,4.50
2023-03-14T07:06:18.356Z,4.60
2023-03-14T07:09:45.621Z,4.20
2023-03-14T07:13:12.768Z,3.80
2023-03-14T07:16:49.959Z,3.30
2023-03-14T07:20:17.826Z,3.50
2023-03-14T07:23:45.488Z,3.40
2023-03-14T07:27:12.915Z,3.50
2023-03-14T07:30:40.229Z,3.80
2023-03-14T07:34:12.923Z,3.60
2023-03-14T07:37:41.738Z,3.30
2023-03-14T07:41:10.510Z,2.90
2023-03-14T07:44:42.160Z,2.80
2023-03-14T07:48:09.286Z,3.40
2023-03-14T07:51:36.390Z,3.10
2023-03-14T07:55:03.422Z,3.20
2023-03-14T07:58:30.736Z,2.80
2023-03-14T08:01:57.740Z,2.80
2023-03-14T08:05:25.102Z,3.40
2023-03-14T08:08:52.391Z,3.40
2023-03-14T08:12:19.597Z,2.60
2023-03-14T08:15:49.910Z,2.80
2023-03-14T08:19:17.394Z,3.00
2023-03-14T08:22:44.376Z,2.40
2023-03-14T08:26:11.587Z,2.30
2023-03-14T08:29:38.658Z,2.10
2023-03-14T08:33:05.831Z,2.50
2023-03-14T08:36:33.489Z,2.70
2023-03-14T08:40:01.072Z,2.50
2023-03-14T08:43:28.374Z,2.70
2023-03-14T08:46:55.527Z,2.40
2023-03-14T08:50:24.339Z,2.80
2023-03-14T08:53:51.725Z,2.00
2023-03-14T08:57:18.935Z,3.20
2023-03-14T09:00:46.099Z,2.30
2023-03-14T09:04:13.344Z,2.50
2023-03-14T09:07:40.966Z,2.80
2023-03-14T09:11:10.793Z,3.20
2023-03-14T09:14:38.425Z,3.00
2023-03-14T09:18:05.580Z,3.10
2023-03-14T09:21:32.615Z,2.70
2023-03-14T09:24:59.565Z,3.40
2023-03-14T09:28:26.959Z,3.10
2023-03-14T09:31:54.167Z,2.80
2023-03-14T09:35:21.474Z,2.90
2023-03-14T09:38:49.195Z,3.40
2023-03-14T09:42:19.723Z,3.20
2023-03-14T09:45:49.840Z,3.10
2023-03-14T09:49:22.529Z,3.20
2023-03-14T09:52:54.060Z,2.90
2023-03-14T09:56:25.766Z,2.80
2023-03-14T09:59:55.380Z,3.30
2023-03-14T10:03:31.718Z,3.60
2023-03-14T10:06:58.807Z,4.00
2023-03-14T10:10:28.766Z,3.10
2023-03-14T10:14:08.425Z,3.20
2023-03-14T10:17:42.812Z,3.30
2023-03-14T10:21:28.156Z,3.40
2023-03-14T10:25:00.227Z,3.10
2023-03-14T10:28:30.175Z,2.60
2023-03-14T10:32:02.054Z,2.60
2023-03-14T10:35:30.475Z,2.60
2023-03-14T10:39:18.516Z,2.60
2023-03-14T10:42:48.765Z,2.50
2023-03-14T10:46:20.506Z,2.90
2023-03-14T10:50:26.702Z,2.50
2023-03-14T10:54:00.436Z,2.30
2023-03-14T10:57:28.821Z,2.10
2023-03-14T11:01:05.212Z,2.30
2023-03-14T11:04:56.812Z,2.60
2023-03-14T11:08:32.572Z,2.50
2023-03-14T11:12:14.912Z,2.60
2023-03-14T11:15:49.219Z,2.50
2023-03-14T11:19:35.821Z,2.80
2023-03-14T11:23:10.599Z,2.70
2023-03-14T11:26:44.175Z,2.60
2023-03-14T11:30:21.398Z,2.40
2023-03-14T11:33:56.029Z,2.60
2023-03-14T11:37:31.552Z,2.30
2023-03-14T11:41:00.734Z,3.00
2023-03-14T11:44:32.390Z,2.80
2023-03-14T11:48:09.815Z,2.40
2023-03-14T11:51:40.555Z,2.90
2023-03-14T11:55:13.209Z,2.30
2023-03-14T11:58:46.650Z,2.00
2023-03-14T12:02:22.016Z,2.50
2023-03-14T12:06:00.557Z,2.20
2023-03-14T12:09:28.133Z,2.30
2023-03-14T12:12:55.758Z,1.70
2023-03-14T12:16:48.267Z,2.00
2023-03-14T12:20:22.242Z,3.80
2023-03-14T12:23:53.499Z,8.90
2023-03-14T12:28:04.313Z,6.40
2023-03-14T12:31:43.553Z,7.90
2023-03-14T12:35:37.299Z,4.80
2023-03-14T12:39:16.622Z,3.60
2023-03-14T12:42:55.522Z,4.20
2023-03-14T12:46:29.113Z,4.50
2023-03-14T12:49:58.368Z,3.30
2023-03-14T12:53:55.593Z,2.40
2023-03-14T12:57:33.608Z,1.60
2023-03-14T13:01:05.191Z,1.10
2023-03-14T13:04:40.252Z,1.70
2023-03-14T13:08:13.394Z,1.80
2023-03-14T13:11:45.322Z,1.70
2023-03-14T13:15:24.741Z,1.30
2023-03-14T13:22:24.035Z,0.90
2023-03-14T13:25:51.241Z,1.30
2023-03-14T13:29:24.586Z,1.50
2023-03-14T13:32:53.904Z,1.60
2023-03-14T13:36:26.027Z,1.50
2023-03-14T13:40:01.319Z,1.90
2023-03-14T13:43:33.196Z,1.60
2023-03-14T13:47:04.744Z,1.70
2023-03-14T13:50:32.405Z,1.50
2023-03-14T13:53:59.916Z,1.90
2023-03-14T13:57:27.435Z,1.80
2023-03-14T14:01:04.746Z,2.20
2023-03-14T14:04:35.252Z,1.20
2023-03-14T14:08:05.319Z,1.40
2023-03-14T14:11:50.887Z,1.80
2023-03-14T14:15:26.675Z,1.50
2023-03-14T14:18:57.121Z,2.00
2023-03-14T14:22:24.656Z,1.60
2023-03-14T14:25:53.363Z,1.70
2023-03-14T14:29:29.605Z,1.70
2023-03-14T14:33:12.256Z,1.30
2023-03-14T14:36:45.097Z,1.90
2023-03-14T14:40:21.092Z,1.40
2023-03-14T14:43:48.668Z,1.50
2023-03-14T14:47:20.790Z,3.10
2023-03-14T14:51:00.641Z,1.70
2023-03-14T14:54:40.886Z,1.50
2023-03-14T14:58:24.867Z,1.70
2023-03-14T15:01:56.910Z,1.20
2023-03-14T15:05:25.880Z,1.80
2023-03-14T15:08:54.947Z,2.00
2023-03-14T15:12:22.605Z,1.40
2023-03-14T15:15:56.868Z,1.80
2023-03-14T15:19:28.159Z,1.80
2023-03-14T15:22:56.227Z,1.90
2023-03-14T15:26:25.174Z,2.50
2023-03-14T15:29:52.398Z,2.60
2023-03-14T15:33:20.599Z,2.40
2023-03-14T15:36:47.786Z,3.10
2023-03-14T15:40:17.158Z,3.80
2023-03-14T15:43:44.488Z,3.40
2023-03-14T15:47:12.462Z,3.80
2023-03-14T15:50:39.532Z,3.10
2023-03-14T15:54:06.955Z,2.90
2023-03-14T15:57:33.942Z,3.00
2023-03-14T16:01:01.402Z,3.10
2023-03-14T16:04:30.374Z,3.30
2023-03-14T16:07:57.688Z,2.50
2023-03-14T16:11:24.776Z,2.60
2023-03-14T16:14:52.678Z,3.20
2023-03-14T16:18:22.236Z,2.60
2023-03-14T16:25:18.972Z,2.70
2023-03-14T16:28:47.541Z,2.30
2023-03-14T16:32:15.407Z,2.60
2023-03-14T16:35:42.609Z,2.20
2023-03-14T16:39:10.072Z,2.10
2023-03-14T16:42:46.778Z,2.50
2023-03-14T16:46:25.587Z,1.90
2023-03-14T16:49:53.583Z,2.50
2023-03-14T16:53:21.803Z,5.30
2023-03-14T16:56:50.364Z,6.20
2023-03-14T17:00:20.654Z,4.70
2023-03-14T17:03:50.559Z,4.20
2023-03-14T17:07:19.305Z,5.00
2023-03-14T17:10:47.051Z,7.50
2023-03-14T17:14:16.058Z,3.50
2023-03-14T17:17:45.074Z,3.30
2023-03-14T17:21:13.862Z,3.50
2023-03-14T17:24:41.196Z,3.20
2023-03-14T17:28:08.948Z,4.10
2023-03-14T17:31:37.316Z,3.30
2023-03-14T17:35:05.884Z,3.50
2023-03-14T17:38:34.380Z,4.10
2023-03-14T17:42:02.302Z,4.10
2023-03-14T17:45:32.011Z,2.70
2023-03-14T17:49:00.779Z,2.50
2023-03-14T17:52:29.364Z,2.70
2023-03-14T17:55:58.060Z,2.80
2023-03-14T17:59:26.192Z,2.90
2023-03-14T18:02:55.905Z,2.00
2023-03-14T18:06:30.486Z,2.50
2023-03-14T18:09:58.100Z,3.00
2023-03-14T18:13:26.531Z,3.30
2023-03-14T18:16:54.599Z,3.10
2023-03-14T18:20:22.866Z,2.90
2023-03-14T18:23:50.466Z,3.00
2023-03-14T18:27:18.544Z,2.70
2023-03-14T18:30:52.458Z,2.70
2023-03-14T18:34:21.705Z,3.10
2023-03-14T18:37:49.134Z,2.30
2023-03-14T18:41:18.996Z,2.80
2023-03-14T18:44:47.083Z,2.70
2023-03-14T18:48:16.139Z,2.90
2023-03-14T18:51:45.051Z,2.50
2023-03-14T18:55:14.644Z,3.40
2023-03-14T18:58:43.275Z,4.70
2023-03-14T19:02:12.262Z,4.70
2023-03-14T19:05:46.351Z,4.80
2023-03-14T19:09:17.141Z,5.20
2023-03-14T19:12:44.760Z,5.90
2023-03-14T19:16:14.843Z,7.00
2023-03-14T19:19:42.931Z,7.10
2023-03-14T19:23:14.324Z,5.10
2023-03-14T19:26:42.174Z,1.50
2023-03-14T19:30:11.844Z,1.30
2023-03-14T19:33:40.299Z,1.50
2023-03-14T19:37:08.530Z,1.20
2023-03-14T19:40:37.477Z,1.50
2023-03-14T19:44:06.194Z,1.10
2023-03-14T19:47:33.745Z,1.10
2023-03-14T19:51:02.453Z,0.70
2023-03-14T19:54:30.425Z,0.90
2023-03-14T19:57:57.688Z,0.40
2023-03-14T20:01:25.480Z,1.10
2023-03-14T20:04:54.535Z,0.80
2023-03-14T20:08:23.214Z,1.10
2023-03-14T20:11:51.147Z,0.70
2023-03-14T20:15:20.344Z,0.60
2023-03-14T20:18:47.916Z,0.50
2023-03-14T20:22:15.072Z,0.60
2023-03-14T20:25:42.897Z,0.40
2023-03-14T20:29:10.011Z,0.80
2023-03-14T20:32:37.308Z,0.70
2023-03-14T20:36:04.918Z,0.70
2023-03-14T20:39:34.149Z,0.80
2023-03-14T20:43:02.744Z,0.80
2023-03-14T20:46:30.023Z,1.20
2023-03-14T20:49:57.111Z,0.90
2023-03-14T20:53:25.162Z,1.40
2023-03-14T20:56:52.540Z,1.20
2023-03-14T21:00:20.914Z,1.60
2023-03-14T21:03:48.164Z,1.40
2023-03-14T21:07:15.324Z,1.50
2023-03-14T21:10:42.698Z,1.60
2023-03-14T21:14:09.837Z,1.60
2023-03-14T21:17:39.681Z,1.80
2023-03-14T21:21:08.671Z,1.80
2023-03-14T21:24:36.029Z,2.10
2023-03-14T21:28:04.346Z,2.20
2023-03-14T21:31:32.144Z,2.70
2023-03-14T21:34:59.464Z,2.80
2023-03-14T21:38:26.829Z,2.50
2023-03-14T21:41:53.885Z,2.40
2023-03-14T21:45:21.253Z,3.60
2023-03-14T21:48:48.414Z,6.10
2023-03-14T21:52:16.944Z,5.50
2023-03-14T21:55:45.856Z,4.80
2023-03-14T21:59:14.499Z,5.60
2023-03-14T22:02:44.090Z,5.40
2023-03-14T22:06:14.448Z,6.10
2023-03-14T22:09:43.999Z,6.60
2023-03-14T22:13:11.040Z,5.60
2023-03-14T22:16:38.175Z,6.60
2023-03-14T22:20:09.635Z,6.40
2023-03-14T22:23:36.737Z,7.20
2023-03-14T22:27:03.807Z,8.10
2023-03-14T22:30:31.286Z,7.20
2023-03-14T22:33:58.840Z,6.50
2023-03-14T22:37:26.039Z,6.90
2023-03-14T22:40:53.601Z,5.10
2023-03-14T22:44:20.681Z,7.10
2023-03-14T22:47:47.870Z,8.80
2023-03-14T22:51:16.410Z,12.00
2023-03-14T22:54:43.707Z,8.60
2023-03-14T22:58:10.835Z,7.90
2023-03-14T23:01:38.057Z,6.90
2023-03-14T23:05:05.562Z,6.00
2023-03-14T23:08:33.652Z,8.70
2023-03-14T23:12:01.825Z,5.30
2023-03-14T23:15:29.574Z,4.50
2023-03-14T23:18:56.971Z,4.60
2023-03-14T23:22:24.345Z,4.20
2023-03-14T23:25:53.620Z,7.70
2023-03-14T23:32:46.806Z,11.80
2023-03-14T23:36:16.075Z,15.90
2023-03-14T23:39:45.534Z,11.10
2023-03-14T23:43:12.678Z,11.10
2023-03-14T23:46:39.766Z,14.60
2023-03-14T23:50:08.009Z,16.10
2023-03-14T23:53:35.399Z,16.20
2023-03-14T23:57:05.602Z,14.00
